METAR és
SPECI
METAR LHBP 271200Z VRB03KT CAVOK 26/13 Q1017 NOSIG=
METAR LHBP 271130Z 08004KT 350V150 9999 FEW048 SCT200 25/12 Q1017 NOSIG=
METAR LHBP 271100Z 07005KT 010V150 9999 FEW042 SCT200 24/14 Q1017 NOSIG=
METAR LHBP 271030Z 06005KT 020V120 9999 SCT038 BKN200 25/15 Q1017 NOSIG=
METAR LHBP 271000Z 24005KT 9999 FEW035 BKN200 24/16 Q1017 NOSIG=
METAR LHBP 270930Z VRB03KT 9999 FEW033 BKN200 23/16 Q1018 NOSIG=
METAR LHBP 270900Z VRB03KT 9999 FEW032 SCT200 23/17 Q1018 NOSIG=
METAR LHBP 270830Z 10005KT 050V180 CAVOK 22/18 Q1018 NOSIG=
METAR LHBP 270800Z 11005KT 060V150 CAVOK 22/18 Q1018 NOSIG=
METAR LHBP 270730Z 12008KT 060V150 CAVOK 21/17 Q1018 NOSIG=
METAR LHBP 270700Z 10007KT 060V130 CAVOK 20/16 Q1018 NOSIG=
METAR LHBP 270630Z 09009KT CAVOK 20/17 Q1018 NOSIG=
METAR LHBP 270600Z 11006KT CAVOK 19/17 Q1018 NOSIG=
METAR LHBP 270530Z VRB01KT CAVOK 20/18 Q1017 NOSIG=
METAR LHBP 270500Z VRB03KT CAVOK 18/17 Q1017 NOSIG=
TAF
TAF LHBP 271100Z 2712/2812 15005KT 9999 FEW045 BECMG 2712/2714 CAVOK BECMG 2716/2718 VRB03KT BECMG 2809/2811 17005KT=
GAMET
FAHU41 LHBM 271100
LHCC GAMET VALID 271200/271800 LHBP-
LHCC BUDAPEST FIR BLW FL100
SECN I
SIGWX: ISOL TS N OF LINE N4728 E02201 - N4710 E01900 - N4648
E01620
SIG CLD: ISOL TCU CB 3500-5000/XXX FT AGL N OF LINE N4728 E02201
- N4710 E01900 - N4648 E01620
SIGMETS APPLICABLE: NIL=
OMSZ: 2016. május 27. 13:02 (11:02  UTC)
[FAHU41]
AIRMET
Nincs érvényes távirat! 
WAHU41 LHBM 191310
LHCC AIRMET 01 VALID 191310/191700 LHBP-
LHCC BUDAPEST FIR ISOL TS OBS AT 1308 BTN E01900 AND E02030
TOP ABV FL100 MOV N NC=
OMSZ: 2016. május 19. 15:18 (13:18  UTC)
[WAHU41]
SIGMET
Nincs érvényes távirat! 
WSHU31 LHBM 251915
LHCC SIGMET 02 VALID 251915/252100 LHBP-
LHCC BUDAPEST FIR SQL TS FCST IN LINE N4742 E01914 -
N4611 E01944 TOP FL350 MOV SSE WKN=
OMSZ: 2016. május 25. 21:20 (19:20  UTC)
[WSHU31]
SIGMET
Vulkáni hamufelhő
Nincs érvényes távirat! 
WVHU31 LHBM 271515 CCA
LHCC SIGMET 03 VALID 271515/271800 LHBP-
LHCC BUDAPEST FIR EXERCISE VOLCEX12/01
CNL VA SIGMET 02 271200/271800
EXERCISE EXERCISE EXERCISE VOLCEX12/01=
OMSZ: 2015. április 14. 15:15 (13:15  UTC)
[WVHU31]